createdAt,value
2022-11-02T00:04:54.006Z,64.53
2022-11-02T00:09:56.834Z,64.52
2022-11-02T00:14:59.671Z,64.51
2022-11-02T00:20:04.238Z,64.64
2022-11-02T00:25:08.883Z,64.29
2022-11-02T00:30:11.963Z,64.43
2022-11-02T00:35:16.550Z,64.49
2022-11-02T00:40:19.483Z,64.46
2022-11-02T00:45:23.042Z,64.41
2022-11-02T00:50:26.062Z,64.47
2022-11-02T00:55:29.105Z,64.42
2022-11-02T01:00:36.281Z,64.49
2022-11-02T01:05:39.422Z,64.54
2022-11-02T01:10:45.550Z,64.38
2022-11-02T01:15:52.553Z,64.50
2022-11-02T01:20:59.048Z,64.47
2022-11-02T01:26:07.194Z,64.63
2022-11-02T01:31:11.374Z,64.68
2022-11-02T01:36:17.081Z,64.87
2022-11-02T01:41:20.059Z,64.84
2022-11-02T01:46:47.864Z,64.81
2022-11-02T01:52:04.972Z,64.83
2022-11-02T01:57:14.927Z,64.94
2022-11-02T02:08:36.324Z,64.93
2022-11-02T02:13:39.204Z,64.97
2022-11-02T02:18:51.994Z,64.87
2022-11-02T02:24:07.124Z,65.27
2022-11-02T02:29:15.023Z,65.12
2022-11-02T02:34:24.739Z,65.12
2022-11-02T02:39:33.565Z,65.25
2022-11-02T02:44:40.774Z,65.04
2022-11-02T02:49:51.408Z,64.94
2022-11-02T02:54:58.459Z,64.97
2022-11-02T03:00:01.579Z,64.90
2022-11-02T03:05:25.725Z,64.93
2022-11-02T03:10:34.841Z,65.13
2022-11-02T03:16:01.376Z,65.03
2022-11-02T03:21:20.352Z,64.80
2022-11-02T03:26:32.266Z,64.56
2022-11-02T03:31:54.948Z,64.69
2022-11-02T03:42:23.574Z,64.57
2022-11-02T03:47:31.190Z,64.83
2022-11-02T03:52:40.035Z,64.89
2022-11-02T03:57:49.616Z,64.86
2022-11-02T04:02:58.721Z,64.85
2022-11-02T04:08:21.009Z,64.93
2022-11-02T04:13:44.348Z,65.11
2022-11-02T04:19:06.118Z,64.85
2022-11-02T04:24:27.729Z,65.10
2022-11-02T04:29:30.632Z,65.35
2022-11-02T04:34:33.791Z,65.35
2022-11-02T04:39:37.291Z,65.76
2022-11-02T04:44:40.848Z,65.55
2022-11-02T04:49:50.650Z,65.57
2022-11-02T04:54:54.284Z,65.56
2022-11-02T04:59:57.251Z,65.28
2022-11-02T05:05:00.451Z,65.43
2022-11-02T05:10:04.157Z,65.62
2022-11-02T05:15:09.939Z,65.76
2022-11-02T05:20:13.704Z,66.02
2022-11-02T05:25:16.660Z,65.80
2022-11-02T05:30:19.566Z,65.94
2022-11-02T05:35:25.072Z,65.92
2022-11-02T05:40:32.143Z,66.16
2022-11-02T05:45:37.208Z,66.21
2022-11-02T05:50:41.351Z,66.15
2022-11-02T05:55:44.858Z,66.43
2022-11-02T06:00:50.016Z,66.41
2022-11-02T06:06:03.776Z,66.43
2022-11-02T06:11:12.483Z,66.65
2022-11-02T06:16:22.412Z,66.68
2022-11-02T06:21:26.837Z,66.70
2022-11-02T06:26:30.749Z,66.56
2022-11-02T06:31:34.094Z,66.87
2022-11-02T06:36:38.017Z,66.82
2022-11-02T06:41:42.929Z,66.86
2022-11-02T06:46:46.457Z,66.91
2022-11-02T06:51:53.653Z,67.10
2022-11-02T06:56:56.620Z,67.07
2022-11-02T07:02:00.090Z,67.21
2022-11-02T07:07:04.603Z,67.13
2022-11-02T07:12:07.823Z,67.52
2022-11-02T07:17:11.298Z,67.24
2022-11-02T07:22:14.796Z,67.30
2022-11-02T07:27:18.150Z,67.29
2022-11-02T07:32:21.544Z,67.52
2022-11-02T07:37:24.600Z,67.36
2022-11-02T07:42:28.245Z,67.32
2022-11-02T07:47:33.360Z,67.68
2022-11-02T07:52:36.914Z,67.55
2022-11-02T07:57:39.743Z,67.45
2022-11-02T08:02:42.725Z,67.36
2022-11-02T08:07:45.637Z,67.24
2022-11-02T08:12:49.539Z,67.13
2022-11-02T08:18:03.389Z,66.98
2022-11-02T08:23:07.846Z,66.97
2022-11-02T08:28:13.878Z,66.70
2022-11-02T08:33:18.767Z,66.50
2022-11-02T08:38:24.733Z,66.48
2022-11-02T08:43:27.796Z,66.23
2022-11-02T08:48:30.709Z,66.04
2022-11-02T08:53:33.595Z,65.93
2022-11-02T08:58:36.476Z,65.80
2022-11-02T09:03:39.445Z,65.53
2022-11-02T09:08:42.469Z,65.16
2022-11-02T09:13:45.643Z,65.16
2022-11-02T09:18:48.766Z,65.09
2022-11-02T09:23:51.698Z,65.09
2022-11-02T09:28:54.588Z,64.68
2022-11-02T09:33:57.524Z,64.28
2022-11-02T09:39:00.462Z,64.27
2022-11-02T09:44:22.180Z,64.59
2022-11-02T09:49:26.285Z,64.21
2022-11-02T09:54:40.480Z,64.16
2022-11-02T09:59:43.516Z,63.93
2022-11-02T10:05:20.146Z,63.46
2022-11-02T10:10:45.812Z,63.07
2022-11-02T10:15:53.723Z,62.37
2022-11-02T10:21:06.684Z,61.76
2022-11-02T10:26:19.363Z,61.25
2022-11-02T10:31:33.905Z,60.63
2022-11-02T10:36:55.785Z,60.38
2022-11-02T10:42:10.552Z,60.11
2022-11-02T10:47:18.654Z,60.01
2022-11-02T10:52:22.106Z,59.27
2022-11-02T10:57:25.940Z,58.98
2022-11-02T11:02:30.190Z,58.85
2022-11-02T11:07:35.036Z,59.22
2022-11-02T11:12:41.051Z,58.87
2022-11-02T11:23:25.700Z,57.95
2022-11-02T11:28:30.273Z,57.81
2022-11-02T11:33:41.517Z,57.02
2022-11-02T11:38:48.420Z,56.55
2022-11-02T11:43:52.928Z,55.77
2022-11-02T11:48:59.764Z,55.15
2022-11-02T11:54:24.309Z,54.35
2022-11-02T11:59:48.526Z,53.79
2022-11-02T12:05:01.967Z,53.43
2022-11-02T12:10:10.949Z,53.11
2022-11-02T12:15:44.287Z,52.85
2022-11-02T12:20:50.133Z,52.86
2022-11-02T12:26:04.929Z,52.76
2022-11-02T12:31:11.406Z,52.63
2022-11-02T12:36:33.020Z,52.47
2022-11-02T12:41:42.025Z,52.82
2022-11-02T12:47:04.913Z,52.54
2022-11-02T12:52:16.841Z,51.87
2022-11-02T12:57:23.805Z,51.69
2022-11-02T13:02:32.510Z,51.12
2022-11-02T13:07:43.453Z,51.00
2022-11-02T13:12:50.822Z,50.90
2022-11-02T13:17:58.493Z,50.92
2022-11-02T13:23:34.747Z,50.64
2022-11-02T13:28:52.834Z,50.49
2022-11-02T13:34:00.242Z,50.18
2022-11-02T13:39:05.996Z,49.88
2022-11-02T13:44:27.540Z,50.05
2022-11-02T13:49:37.382Z,50.14
2022-11-02T13:54:53.181Z,50.05
2022-11-02T13:59:59.763Z,50.10
2022-11-02T14:05:02.956Z,50.04
2022-11-02T14:10:16.415Z,49.96
2022-11-02T14:15:19.301Z,49.95
2022-11-02T14:20:46.826Z,49.87
2022-11-02T14:25:54.473Z,50.03
2022-11-02T14:31:03.417Z,50.02
2022-11-02T14:36:18.691Z,50.15
2022-11-02T14:41:39.933Z,50.55
2022-11-02T14:46:48.817Z,50.98
2022-11-02T14:52:15.028Z,51.41
2022-11-02T14:57:26.149Z,51.75
2022-11-02T15:02:32.600Z,51.98
2022-11-02T15:07:41.784Z,52.35
2022-11-02T15:12:46.978Z,52.44
2022-11-02T15:17:59.304Z,52.60
2022-11-02T15:23:30.009Z,52.79
2022-11-02T15:28:34.984Z,53.07
2022-11-02T15:33:42.734Z,53.37
2022-11-02T15:38:51.404Z,53.60
2022-11-02T15:44:08.051Z,53.96
2022-11-02T15:49:29.590Z,54.07
2022-11-02T15:54:49.616Z,54.14
2022-11-02T16:00:14.082Z,54.30
2022-11-02T16:05:26.802Z,54.45
2022-11-02T16:10:31.178Z,54.53
2022-11-02T16:15:34.296Z,54.72
2022-11-02T16:20:40.000Z,54.99
2022-11-02T16:25:46.980Z,54.96
2022-11-02T16:31:21.548Z,55.06
2022-11-02T16:36:27.308Z,55.26
2022-11-02T16:41:32.793Z,55.41
2022-11-02T16:46:56.682Z,55.57
2022-11-02T16:52:06.866Z,55.56
2022-11-02T16:57:12.601Z,55.68
2022-11-02T17:02:16.085Z,55.75
2022-11-02T17:07:35.884Z,55.96
2022-11-02T17:12:43.627Z,56.00
2022-11-02T17:17:47.022Z,56.01
2022-11-02T17:23:04.036Z,56.29
2022-11-02T17:28:34.556Z,56.43
2022-11-02T17:33:37.634Z,56.51
2022-11-02T17:38:40.728Z,56.67
2022-11-02T17:43:45.662Z,56.64
2022-11-02T17:48:48.656Z,56.78
2022-11-02T17:53:51.966Z,56.90
2022-11-02T17:58:56.539Z,56.97
2022-11-02T18:03:59.448Z,57.09
2022-11-02T18:09:11.495Z,57.13
2022-11-02T18:14:16.994Z,57.10
2022-11-02T18:19:20.193Z,57.38
2022-11-02T18:24:23.084Z,57.20
2022-11-02T18:29:25.976Z,57.21
2022-11-02T18:34:29.274Z,57.26
2022-11-02T18:39:32.533Z,57.48
2022-11-02T18:44:35.842Z,57.46
2022-11-02T18:49:38.902Z,57.52
2022-11-02T18:54:41.793Z,57.62
2022-11-02T18:59:45.007Z,57.80
2022-11-02T19:04:47.883Z,57.81
2022-11-02T19:09:50.766Z,58.13
2022-11-02T19:14:54.436Z,58.07
2022-11-02T19:19:57.486Z,57.90
2022-11-02T19:25:01.281Z,57.85
2022-11-02T19:30:05.197Z,58.15
2022-11-02T19:35:08.459Z,58.21
2022-11-02T19:40:11.889Z,58.13
2022-11-02T19:45:17.949Z,58.24
2022-11-02T19:50:20.962Z,58.26
2022-11-02T19:55:28.690Z,58.50
2022-11-02T20:00:36.046Z,58.38
2022-11-02T20:05:40.390Z,58.24
2022-11-02T20:10:43.476Z,58.06
2022-11-02T20:15:56.109Z,58.14
2022-11-02T20:21:11.429Z,58.23
2022-11-02T20:26:47.003Z,58.24
2022-11-02T20:31:52.665Z,58.33
2022-11-02T20:37:00.718Z,58.46
2022-11-02T20:42:04.371Z,58.35
2022-11-02T20:47:11.204Z,58.47
2022-11-02T20:52:19.359Z,58.70
2022-11-02T20:57:24.572Z,58.69
2022-11-02T21:02:35.101Z,58.59
2022-11-02T21:07:38.131Z,58.70
2022-11-02T21:12:59.758Z,58.65
2022-11-02T21:18:02.865Z,58.56
2022-11-02T21:23:06.592Z,58.69
2022-11-02T21:28:09.727Z,58.71
2022-11-02T21:33:12.662Z,58.74
2022-11-02T21:38:15.657Z,58.46
2022-11-02T21:43:19.134Z,58.86
2022-11-02T21:48:23.157Z,58.74
2022-11-02T21:53:26.296Z,58.72
2022-11-02T21:58:29.707Z,58.77
2022-11-02T22:03:32.636Z,58.71
2022-11-02T22:08:41.295Z,58.74
2022-11-02T22:13:44.533Z,58.81
2022-11-02T22:19:01.122Z,58.81
2022-11-02T22:24:05.576Z,58.79
2022-11-02T22:29:09.116Z,58.87
2022-11-02T22:34:14.132Z,58.86
2022-11-02T22:39:17.118Z,58.99
2022-11-02T22:44:22.811Z,58.96
2022-11-02T22:49:25.653Z,59.19
2022-11-02T22:54:28.648Z,59.41
2022-11-02T22:59:31.575Z,59.06
2022-11-02T23:04:34.471Z,59.41
2022-11-02T23:09:37.452Z,59.57
2022-11-02T23:14:40.353Z,59.48
2022-11-02T23:19:44.379Z,59.39
2022-11-02T23:25:08.679Z,59.63
2022-11-02T23:30:30.763Z,59.74
2022-11-02T23:35:52.654Z,59.56
2022-11-02T23:40:55.816Z,59.58
2022-11-02T23:45:58.772Z,59.70
2022-11-02T23:51:20.393Z,59.67
2022-11-02T23:56:41.999Z,59.77
